Alaska, Minnesota
Current Conditions -  °F | °C
As of 5:53 AM on Saturday 01 Nov 2014 (Local Time) from KBJI Reporting Station
Clear Clear  
Wind Chill: 20°   Ceiling: Unl
Heat Index: 29°   Visibility: 10mi
Dew Point: 16°   Wind: 12mph
Humidity: 57%   Direction: 180°S
Pressure: 30.29"   Gusts: NA
Location:  47.7369°N, 94.9947°W
Report Text: KBJI 011053Z AUTO 18010KT 10SM CLR M01/M09 A3029 RMK AO2 T10151090
Loading
Personal Weather Stations






























Interactive Weather Map
Tropical Storm Tracking
New forecast layout! Learn more

10-Day Weather Forecast

Advertisements
Track Severe Weather on mobile